sensor_id;sensor_type;location;lat;lon;timestamp;temperature;humidity
108;DHT22;49;48.530;9.200;2023-03-11T00:02:15;6.40;1.00
108;DHT22;49;48.530;9.200;2023-03-11T00:04:42;6.40;1.00
108;DHT22;49;48.530;9.200;2023-03-11T00:07:10;6.40;1.00
108;DHT22;49;48.530;9.200;2023-03-11T00:09:37;6.30;1.00
108;DHT22;49;48.530;9.200;2023-03-11T00:12:05;6.40;1.00
108;DHT22;49;48.530;9.200;2023-03-11T00:14:32;6.70;1.00
108;DHT22;49;48.530;9.200;2023-03-11T00:17:00;6.80;1.00
108;DHT22;49;48.530;9.200;2023-03-11T00:19:27;6.60;1.00
108;DHT22;49;48.530;9.200;2023-03-11T00:21:53;6.60;1.00
108;DHT22;49;48.530;9.200;2023-03-11T00:24:21;6.60;1.00
108;DHT22;49;48.530;9.200;2023-03-11T00:26:48;6.90;1.00
108;DHT22;49;48.530;9.200;2023-03-11T00:29:14;7.00;1.00
108;DHT22;49;48.530;9.200;2023-03-11T00:31:41;7.20;1.00
108;DHT22;49;48.530;9.200;2023-03-11T00:34:10;7.20;1.00
108;DHT22;49;48.530;9.200;2023-03-11T00:36:36;7.30;1.00
108;DHT22;49;48.530;9.200;2023-03-11T00:39:04;7.50;1.00
108;DHT22;49;48.530;9.200;2023-03-11T00:41:32;7.90;1.00
108;DHT22;49;48.530;9.200;2023-03-11T00:43:59;7.90;1.00
108;DHT22;49;48.530;9.200;2023-03-11T00:46:26;7.90;1.00
108;DHT22;49;48.530;9.200;2023-03-11T00:48:54;7.80;1.00
108;DHT22;49;48.530;9.200;2023-03-11T00:51:22;8.10;1.00
108;DHT22;49;48.530;9.200;2023-03-11T00:53:49;8.20;1.00
108;DHT22;49;48.530;9.200;2023-03-11T00:56:16;8.40;1.00
108;DHT22;49;48.530;9.200;2023-03-11T00:58:44;8.50;1.00
108;DHT22;49;48.530;9.200;2023-03-11T01:01:12;8.40;1.00
108;DHT22;49;48.530;9.200;2023-03-11T01:03:41;8.00;1.00
108;DHT22;49;48.530;9.200;2023-03-11T01:06:08;8.00;1.00
108;DHT22;49;48.530;9.200;2023-03-11T01:08:37;7.80;1.00
108;DHT22;49;48.530;9.200;2023-03-11T01:11:05;7.70;1.00
108;DHT22;49;48.530;9.200;2023-03-11T01:13:32;7.50;1.00
108;DHT22;49;48.530;9.200;2023-03-11T01:16:00;7.40;1.00
108;DHT22;49;48.530;9.200;2023-03-11T01:18:27;7.50;1.00
108;DHT22;49;48.530;9.200;2023-03-11T01:20:54;7.40;1.00
108;DHT22;49;48.530;9.200;2023-03-11T01:23:22;7.70;1.00
108;DHT22;49;48.530;9.200;2023-03-11T01:25:50;8.00;1.00
108;DHT22;49;48.530;9.200;2023-03-11T01:28:17;8.30;1.00
108;DHT22;49;48.530;9.200;2023-03-11T01:30:44;8.70;1.00
108;DHT22;49;48.530;9.200;2023-03-11T01:33:14;8.60;1.00
108;DHT22;49;48.530;9.200;2023-03-11T01:35:42;7.90;1.00
108;DHT22;49;48.530;9.200;2023-03-11T01:38:11;7.80;1.00
108;DHT22;49;48.530;9.200;2023-03-11T01:40:40;8.00;1.00
108;DHT22;49;48.530;9.200;2023-03-11T01:43:47;8.30;1.00
108;DHT22;49;48.530;9.200;2023-03-11T01:46:18;8.60;1.00
108;DHT22;49;48.530;9.200;2023-03-11T01:48:46;8.60;1.00
108;DHT22;49;48.530;9.200;2023-03-11T01:51:17;8.10;1.00
108;DHT22;49;48.530;9.200;2023-03-11T01:53:45;8.10;1.00
108;DHT22;49;48.530;9.200;2023-03-11T01:56:12;8.30;1.00
108;DHT22;49;48.530;9.200;2023-03-11T01:58:43;8.30;1.00
108;DHT22;49;48.530;9.200;2023-03-11T02:01:13;8.30;1.00
108;DHT22;49;48.530;9.200;2023-03-11T02:03:41;8.40;1.00
108;DHT22;49;48.530;9.200;2023-03-11T02:06:11;8.30;1.00
108;DHT22;49;48.530;9.200;2023-03-11T02:08:40;8.00;1.00
108;DHT22;49;48.530;9.200;2023-03-11T02:11:11;7.90;1.00
108;DHT22;49;48.530;9.200;2023-03-11T02:13:41;7.50;1.00
108;DHT22;49;48.530;9.200;2023-03-11T02:16:09;7.20;1.00
108;DHT22;49;48.530;9.200;2023-03-11T02:18:37;7.00;1.00
108;DHT22;49;48.530;9.200;2023-03-11T02:21:14;6.90;1.00
108;DHT22;49;48.530;9.200;2023-03-11T02:23:49;7.40;1.00
108;DHT22;49;48.530;9.200;2023-03-11T02:26:22;7.40;1.00
108;DHT22;49;48.530;9.200;2023-03-11T02:28:53;7.60;1.00
108;DHT22;49;48.530;9.200;2023-03-11T02:31:21;8.00;1.00
108;DHT22;49;48.530;9.200;2023-03-11T02:33:52;7.90;1.00
108;DHT22;49;48.530;9.200;2023-03-11T02:36:31;7.80;1.00
108;DHT22;49;48.530;9.200;2023-03-11T02:38:59;7.80;1.00
108;DHT22;49;48.530;9.200;2023-03-11T02:41:26;7.80;1.00
108;DHT22;49;48.530;9.200;2023-03-11T02:43:55;7.80;1.00
108;DHT22;49;48.530;9.200;2023-03-11T02:46:23;7.60;1.00
108;DHT22;49;48.530;9.200;2023-03-11T02:48:51;7.80;1.00
108;DHT22;49;48.530;9.200;2023-03-11T02:51:19;7.70;1.00
108;DHT22;49;48.530;9.200;2023-03-11T02:53:49;7.50;1.00
108;DHT22;49;48.530;9.200;2023-03-11T02:56:17;7.00;1.00
108;DHT22;49;48.530;9.200;2023-03-11T02:58:44;7.20;1.00
108;DHT22;49;48.530;9.200;2023-03-11T03:01:12;7.50;1.00
108;DHT22;49;48.530;9.200;2023-03-11T03:03:39;7.80;1.00
108;DHT22;49;48.530;9.200;2023-03-11T03:06:06;7.80;1.00
108;DHT22;49;48.530;9.200;2023-03-11T03:08:33;7.70;1.00
108;DHT22;49;48.530;9.200;2023-03-11T03:11:00;7.50;1.00
108;DHT22;49;48.530;9.200;2023-03-11T03:13:28;7.50;1.00
108;DHT22;49;48.530;9.200;2023-03-11T03:15:55;7.70;1.00
108;DHT22;49;48.530;9.200;2023-03-11T03:18:24;8.00;1.00
108;DHT22;49;48.530;9.200;2023-03-11T03:20:51;7.90;1.00
108;DHT22;49;48.530;9.200;2023-03-11T03:23:19;7.60;1.00
108;DHT22;49;48.530;9.200;2023-03-11T03:25:46;7.60;1.00
108;DHT22;49;48.530;9.200;2023-03-11T03:28:13;7.60;1.00
108;DHT22;49;48.530;9.200;2023-03-11T03:30:41;7.70;1.00
108;DHT22;49;48.530;9.200;2023-03-11T03:33:08;7.50;1.00
108;DHT22;49;48.530;9.200;2023-03-11T03:35:40;7.40;1.00
108;DHT22;49;48.530;9.200;2023-03-11T03:38:08;6.50;1.00
108;DHT22;49;48.530;9.200;2023-03-11T03:40:35;5.90;1.00
108;DHT22;49;48.530;9.200;2023-03-11T03:43:02;5.50;1.00
108;DHT22;49;48.530;9.200;2023-03-11T03:45:29;5.30;1.00
108;DHT22;49;48.530;9.200;2023-03-11T03:47:56;5.50;1.00
108;DHT22;49;48.530;9.200;2023-03-11T03:50:23;6.10;1.00
108;DHT22;49;48.530;9.200;2023-03-11T03:52:52;6.50;1.00
108;DHT22;49;48.530;9.200;2023-03-11T03:55:19;6.30;1.00
108;DHT22;49;48.530;9.200;2023-03-11T03:57:46;6.40;1.00
108;DHT22;49;48.530;9.200;2023-03-11T04:00:13;6.50;1.00
108;DHT22;49;48.530;9.200;2023-03-11T04:02:41;6.60;1.00
108;DHT22;49;48.530;9.200;2023-03-11T04:05:09;6.70;1.00
108;DHT22;49;48.530;9.200;2023-03-11T04:07:36;6.60;1.00
108;DHT22;49;48.530;9.200;2023-03-11T04:10:06;6.40;1.00
108;DHT22;49;48.530;9.200;2023-03-11T04:12:33;6.10;1.00
108;DHT22;49;48.530;9.200;2023-03-11T04:15:00;5.80;1.00
108;DHT22;49;48.530;9.200;2023-03-11T04:17:26;5.70;1.00
108;DHT22;49;48.530;9.200;2023-03-11T04:19:53;5.40;1.00
108;DHT22;49;48.530;9.200;2023-03-11T04:22:20;5.60;1.00
108;DHT22;49;48.530;9.200;2023-03-11T04:24:47;5.80;1.00
108;DHT22;49;48.530;9.200;2023-03-11T04:27:16;6.10;1.00
108;DHT22;49;48.530;9.200;2023-03-11T04:29:43;6.50;1.00
108;DHT22;49;48.530;9.200;2023-03-11T04:32:10;7.00;1.00
108;DHT22;49;48.530;9.200;2023-03-11T04:34:37;7.20;1.00
108;DHT22;49;48.530;9.200;2023-03-11T04:37:04;7.50;1.00
108;DHT22;49;48.530;9.200;2023-03-11T04:39:31;7.50;1.00
108;DHT22;49;48.530;9.200;2023-03-11T04:41:59;7.80;1.00
108;DHT22;49;48.530;9.200;2023-03-11T04:44:28;7.80;1.00
108;DHT22;49;48.530;9.200;2023-03-11T04:46:55;8.00;1.00
108;DHT22;49;48.530;9.200;2023-03-11T04:49:22;8.50;1.00
108;DHT22;49;48.530;9.200;2023-03-11T04:51:49;8.80;1.00
108;DHT22;49;48.530;9.200;2023-03-11T04:54:16;9.20;1.00
108;DHT22;49;48.530;9.200;2023-03-11T04:56:43;8.60;1.00
108;DHT22;49;48.530;9.200;2023-03-11T04:59:10;8.30;1.00
108;DHT22;49;48.530;9.200;2023-03-11T05:01:38;7.80;1.00
108;DHT22;49;48.530;9.200;2023-03-11T05:04:05;7.10;1.00
108;DHT22;49;48.530;9.200;2023-03-11T05:06:32;6.80;1.00
108;DHT22;49;48.530;9.200;2023-03-11T05:08:59;6.80;1.00
108;DHT22;49;48.530;9.200;2023-03-11T05:11:26;7.10;1.00
108;DHT22;49;48.530;9.200;2023-03-11T05:13:53;7.50;1.00
108;DHT22;49;48.530;9.200;2023-03-11T05:16:20;7.70;1.00
108;DHT22;49;48.530;9.200;2023-03-11T05:18:49;8.00;1.00
108;DHT22;49;48.530;9.200;2023-03-11T05:21:16;7.70;1.00
108;DHT22;49;48.530;9.200;2023-03-11T05:23:43;7.60;1.00
108;DHT22;49;48.530;9.200;2023-03-11T05:26:10;7.80;1.00
108;DHT22;49;48.530;9.200;2023-03-11T05:28:38;7.60;1.00
108;DHT22;49;48.530;9.200;2023-03-11T05:31:07;7.60;1.00
108;DHT22;49;48.530;9.200;2023-03-11T05:33:34;7.30;1.00
108;DHT22;49;48.530;9.200;2023-03-11T05:36:07;7.30;1.00
108;DHT22;49;48.530;9.200;2023-03-11T05:38:35;7.00;1.00
108;DHT22;49;48.530;9.200;2023-03-11T05:41:02;7.00;1.00
108;DHT22;49;48.530;9.200;2023-03-11T05:43:30;7.10;1.00
108;DHT22;49;48.530;9.200;2023-03-11T05:45:57;7.10;1.00
108;DHT22;49;48.530;9.200;2023-03-11T05:48:24;7.20;1.00
108;DHT22;49;48.530;9.200;2023-03-11T05:50:51;7.10;1.00
108;DHT22;49;48.530;9.200;2023-03-11T05:53:23;7.30;1.00
108;DHT22;49;48.530;9.200;2023-03-11T05:55:56;7.30;1.00
108;DHT22;49;48.530;9.200;2023-03-11T05:58:23;7.40;1.00
108;DHT22;49;48.530;9.200;2023-03-11T06:21:04;7.60;1.00
108;DHT22;49;48.530;9.200;2023-03-11T06:23:33;7.80;1.00
108;DHT22;49;48.530;9.200;2023-03-11T06:31:05;7.90;1.00
108;DHT22;49;48.530;9.200;2023-03-11T06:33:33;7.80;1.00
108;DHT22;49;48.530;9.200;2023-03-11T06:36:01;8.00;1.00
108;DHT22;49;48.530;9.200;2023-03-11T06:38:30;7.90;1.00
108;DHT22;49;48.530;9.200;2023-03-11T06:40:59;7.40;1.00
108;DHT22;49;48.530;9.200;2023-03-11T07:21:36;13.00;1.00
108;DHT22;49;48.530;9.200;2023-03-11T07:29:29;11.70;1.00
108;DHT22;49;48.530;9.200;2023-03-11T08:50:43;11.10;1.00
108;DHT22;49;48.530;9.200;2023-03-11T09:26:03;10.10;1.00
108;DHT22;49;48.530;9.200;2023-03-11T09:31:03;9.80;1.00
108;DHT22;49;48.530;9.200;2023-03-11T09:33:30;9.00;1.00
108;DHT22;49;48.530;9.200;2023-03-11T10:08:37;10.60;1.00
108;DHT22;49;48.530;9.200;2023-03-11T10:13:42;10.00;1.00
108;DHT22;49;48.530;9.200;2023-03-11T10:23:47;11.70;1.00
108;DHT22;49;48.530;9.200;2023-03-11T10:39:00;11.10;1.00
108;DHT22;49;48.530;9.200;2023-03-11T10:46:27;10.80;1.00
108;DHT22;49;48.530;9.200;2023-03-11T11:49:06;10.60;1.00
108;DHT22;49;48.530;9.200;2023-03-11T12:16:49;9.50;1.00
108;DHT22;49;48.530;9.200;2023-03-11T13:09:39;10.90;1.00
108;DHT22;49;48.530;9.200;2023-03-11T13:12:41;11.20;1.00
108;DHT22;49;48.530;9.200;2023-03-11T13:15:28;11.60;1.00
108;DHT22;49;48.530;9.200;2023-03-11T14:00:56;11.60;1.00
108;DHT22;49;48.530;9.200;2023-03-11T14:13:40;11.80;1.00
108;DHT22;49;48.530;9.200;2023-03-11T14:21:15;12.10;1.00
108;DHT22;49;48.530;9.200;2023-03-11T14:43:53;12.30;1.00
108;DHT22;49;48.530;9.200;2023-03-11T14:56:34;12.70;1.00
108;DHT22;49;48.530;9.200;2023-03-11T15:29:57;12.60;1.00
108;DHT22;49;48.530;9.200;2023-03-11T16:06:52;11.30;1.00
108;DHT22;49;48.530;9.200;2023-03-11T16:34:49;8.90;1.00
108;DHT22;49;48.530;9.200;2023-03-11T16:37:17;8.30;1.00
108;DHT22;49;48.530;9.200;2023-03-11T16:39:46;7.70;1.00
108;DHT22;49;48.530;9.200;2023-03-11T16:42:20;7.50;1.00
108;DHT22;49;48.530;9.200;2023-03-11T16:44:51;7.50;1.00
108;DHT22;49;48.530;9.200;2023-03-11T16:49:53;7.60;1.00
108;DHT22;49;48.530;9.200;2023-03-11T16:54:49;7.50;1.00
108;DHT22;49;48.530;9.200;2023-03-11T16:57:16;7.60;1.00
108;DHT22;49;48.530;9.200;2023-03-11T16:59:46;7.70;1.00
108;DHT22;49;48.530;9.200;2023-03-11T17:04:42;7.40;1.00
108;DHT22;49;48.530;9.200;2023-03-11T17:09:42;7.70;1.00
108;DHT22;49;48.530;9.200;2023-03-11T17:12:10;7.80;1.00
108;DHT22;49;48.530;9.200;2023-03-11T17:14:40;7.80;1.00
108;DHT22;49;48.530;9.200;2023-03-11T17:17:07;7.50;1.00
108;DHT22;49;48.530;9.200;2023-03-11T17:19:34;7.40;1.00
108;DHT22;49;48.530;9.200;2023-03-11T17:22:02;7.10;1.00
108;DHT22;49;48.530;9.200;2023-03-11T17:24:31;6.80;1.00
108;DHT22;49;48.530;9.200;2023-03-11T17:42:11;6.90;1.00
108;DHT22;49;48.530;9.200;2023-03-11T17:54:43;7.20;1.00
108;DHT22;49;48.530;9.200;2023-03-11T17:59:42;6.90;1.00
108;DHT22;49;48.530;9.200;2023-03-11T18:02:17;6.50;1.00
108;DHT22;49;48.530;9.200;2023-03-11T18:04:50;6.40;1.00
108;DHT22;49;48.530;9.200;2023-03-11T18:07:18;6.40;1.00
108;DHT22;49;48.530;9.200;2023-03-11T18:09:50;6.20;1.00
108;DHT22;49;48.530;9.200;2023-03-11T18:12:18;6.10;1.00
108;DHT22;49;48.530;9.200;2023-03-11T18:14:56;6.00;1.00
108;DHT22;49;48.530;9.200;2023-03-11T18:17:28;6.20;1.00
108;DHT22;49;48.530;9.200;2023-03-11T18:19:58;6.10;1.00
108;DHT22;49;48.530;9.200;2023-03-11T18:22:33;6.20;1.00
108;DHT22;49;48.530;9.200;2023-03-11T18:33:07;6.10;1.00
108;DHT22;49;48.530;9.200;2023-03-11T18:55:58;6.40;1.00
108;DHT22;49;48.530;9.200;2023-03-11T19:06:03;7.00;1.00
108;DHT22;49;48.530;9.200;2023-03-11T19:08:31;7.20;1.00
108;DHT22;49;48.530;9.200;2023-03-11T19:13:37;7.10;1.00
108;DHT22;49;48.530;9.200;2023-03-11T19:16:06;6.90;1.00
108;DHT22;49;48.530;9.200;2023-03-11T19:43:44;8.50;1.00
108;DHT22;49;48.530;9.200;2023-03-11T20:01:50;10.30;1.00
108;DHT22;49;48.530;9.200;2023-03-11T20:07:06;10.50;1.00
108;DHT22;49;48.530;9.200;2023-03-11T20:09:39;10.80;1.00
108;DHT22;49;48.530;9.200;2023-03-11T20:12:14;10.50;1.00
108;DHT22;49;48.530;9.200;2023-03-11T20:14:45;10.10;1.00
108;DHT22;49;48.530;9.200;2023-03-11T20:17:19;10.10;1.00
108;DHT22;49;48.530;9.200;2023-03-11T20:22:21;10.30;1.00
108;DHT22;49;48.530;9.200;2023-03-11T20:24:56;10.50;1.00
108;DHT22;49;48.530;9.200;2023-03-11T20:52:44;11.10;1.00
108;DHT22;49;48.530;9.200;2023-03-11T20:55:20;10.00;1.00
108;DHT22;49;48.530;9.200;2023-03-11T21:00:25;9.10;1.00
108;DHT22;49;48.530;9.200;2023-03-11T21:10:52;9.90;1.00
108;DHT22;49;48.530;9.200;2023-03-11T21:13:33;10.10;1.00
108;DHT22;49;48.530;9.200;2023-03-11T21:18:41;10.40;1.00
108;DHT22;49;48.530;9.200;2023-03-11T21:21:15;10.60;1.00
108;DHT22;49;48.530;9.200;2023-03-11T21:23:49;10.60;1.00
108;DHT22;49;48.530;9.200;2023-03-11T21:26:27;10.80;1.00
108;DHT22;49;48.530;9.200;2023-03-11T21:34:12;11.50;1.00
108;DHT22;49;48.530;9.200;2023-03-11T21:36:45;10.80;1.00
108;DHT22;49;48.530;9.200;2023-03-11T21:44:25;11.20;1.00
108;DHT22;49;48.530;9.200;2023-03-11T21:46:56;11.30;1.00
108;DHT22;49;48.530;9.200;2023-03-11T21:49:26;11.40;1.00
108;DHT22;49;48.530;9.200;2023-03-11T21:54:31;11.00;1.00
108;DHT22;49;48.530;9.200;2023-03-11T21:57:02;11.10;1.00
108;DHT22;49;48.530;9.200;2023-03-11T21:59:37;11.00;1.00
108;DHT22;49;48.530;9.200;2023-03-11T22:02:15;10.70;1.00
108;DHT22;49;48.530;9.200;2023-03-11T22:04:49;10.50;1.00
108;DHT22;49;48.530;9.200;2023-03-11T22:07:35;10.20;1.00
108;DHT22;49;48.530;9.200;2023-03-11T22:10:04;9.80;1.00
108;DHT22;49;48.530;9.200;2023-03-11T22:15:07;10.00;1.00
108;DHT22;49;48.530;9.200;2023-03-11T22:17:40;10.10;1.00
108;DHT22;49;48.530;9.200;2023-03-11T22:22:41;10.40;1.00
108;DHT22;49;48.530;9.200;2023-03-11T22:27:42;9.90;1.00
108;DHT22;49;48.530;9.200;2023-03-11T22:30:11;10.10;1.00
108;DHT22;49;48.530;9.200;2023-03-11T22:32:38;10.20;1.00
108;DHT22;49;48.530;9.200;2023-03-11T22:35:06;10.60;1.00
108;DHT22;49;48.530;9.200;2023-03-11T22:37:36;10.80;1.00
108;DHT22;49;48.530;9.200;2023-03-11T22:40:04;10.90;1.00
108;DHT22;49;48.530;9.200;2023-03-11T22:42:36;11.10;1.00
108;DHT22;49;48.530;9.200;2023-03-11T22:45:05;10.90;1.00
108;DHT22;49;48.530;9.200;2023-03-11T22:47:34;10.50;1.00
108;DHT22;49;48.530;9.200;2023-03-11T22:50:02;10.60;1.00
108;DHT22;49;48.530;9.200;2023-03-11T22:52:30;10.90;1.00
108;DHT22;49;48.530;9.200;2023-03-11T22:55:02;11.00;1.00
108;DHT22;49;48.530;9.200;2023-03-11T23:02:44;10.20;1.00
108;DHT22;49;48.530;9.200;2023-03-11T23:05:12;10.20;1.00
108;DHT22;49;48.530;9.200;2023-03-11T23:07:43;10.30;1.00
108;DHT22;49;48.530;9.200;2023-03-11T23:10:13;10.40;1.00
108;DHT22;49;48.530;9.200;2023-03-11T23:12:43;10.70;1.00
108;DHT22;49;48.530;9.200;2023-03-11T23:15:12;10.70;1.00
108;DHT22;49;48.530;9.200;2023-03-11T23:17:44;10.90;1.00
108;DHT22;49;48.530;9.200;2023-03-11T23:20:15;11.00;1.00
108;DHT22;49;48.530;9.200;2023-03-11T23:22:45;11.00;1.00
108;DHT22;49;48.530;9.200;2023-03-11T23:25:14;11.20;1.00
108;DHT22;49;48.530;9.200;2023-03-11T23:27:44;11.10;1.00
108;DHT22;49;48.530;9.200;2023-03-11T23:30:13;10.70;1.00
108;DHT22;49;48.530;9.200;2023-03-11T23:32:45;10.60;1.00
108;DHT22;49;48.530;9.200;2023-03-11T23:35:12;10.50;1.00
108;DHT22;49;48.530;9.200;2023-03-11T23:37:46;10.30;1.00
108;DHT22;49;48.530;9.200;2023-03-11T23:40:14;9.90;1.00
108;DHT22;49;48.530;9.200;2023-03-11T23:42:50;10.00;1.00
108;DHT22;49;48.530;9.200;2023-03-11T23:45:17;10.20;1.00
108;DHT22;49;48.530;9.200;2023-03-11T23:47:49;10.40;1.00
108;DHT22;49;48.530;9.200;2023-03-11T23:50:16;10.50;1.00
108;DHT22;49;48.530;9.200;2023-03-11T23:52:46;10.30;1.00
108;DHT22;49;48.530;9.200;2023-03-11T23:55:15;10.40;1.00
108;DHT22;49;48.530;9.200;2023-03-11T23:57:45;10.80;1.00
